Time;durP1;ratioP1;P1;durP2;ratioP2;P2;SDS_P1;SDS_P2;PMS_P1;PMS_P2;Temp;Humidity;BMP_temperature;BMP_pressure;BME280_temperature;BME280_humidity;BME280_pressure;Samples;Min_cycle;Max_cycle;Signal;HPM_P1;HPM_P2
2022/09/15 00:01:10;;;;;;;9.18;5.90;;;;;;;9.66;59.77;97387.88;6105133;29;20063;-68
2022/09/15 00:04:15;;;;;;;11.52;6.00;;;;;;;9.67;59.47;97386.09;6105040;29;20047;-69
2022/09/15 00:07:19;;;;;;;16.65;7.07;;;;;;;9.69;59.70;97386.03;6105227;29;20524;-69
2022/09/15 00:10:27;;;;;;;13.18;7.60;;;;;;;9.68;59.66;97385.16;6105066;29;20459;-69
2022/09/15 00:13:32;;;;;;;16.75;9.57;;;;;;;9.66;59.88;97376.53;6103370;29;20371;-69
2022/09/15 00:16:37;;;;;;;13.45;7.65;;;;;;;9.66;59.94;97381.78;6104908;29;20052;-68
2022/09/15 00:19:38;;;;;;;13.85;7.18;;;;;;;9.65;60.02;97378.31;6104766;29;20059;-68
2022/09/15 00:22:39;;;;;;;11.50;6.88;;;;;;;9.70;60.06;97370.16;6104731;29;20223;-69
2022/09/15 00:25:46;;;;;;;13.43;7.22;;;;;;;9.76;60.17;97371.59;6104638;29;20052;-69
2022/09/15 00:28:48;;;;;;;14.55;7.18;;;;;;;9.74;59.95;97374.34;6104238;29;20410;-69
2022/09/15 00:31:51;;;;;;;;;;;;;;;9.74;60.46;97373.47;6104936;29;20060;-69
2022/09/15 00:35:00;;;;;;;10.20;6.68;;;;;;;9.74;59.75;97369.09;6103647;29;19930;-69
2022/09/15 00:38:07;;;;;;;11.07;7.10;;;;;;;9.71;59.74;97358.72;6104452;29;20100;-69
2022/09/15 00:41:11;;;;;;;13.30;6.93;;;;;;;9.76;59.86;97372.44;6103901;29;20457;-69
2022/09/15 00:44:15;;;;;;;16.55;7.80;;;;;;;9.76;60.05;97377.72;6103982;29;20127;-69
2022/09/15 00:47:22;;;;;;;10.98;6.82;;;;;;;9.75;60.08;97386.53;6104100;29;20048;-69
2022/09/15 00:50:24;;;;;;;13.88;7.20;;;;;;;9.71;60.39;97379.75;6103964;29;20539;-69
2022/09/15 00:53:30;;;;;;;11.38;6.85;;;;;;;9.66;60.83;97381.78;6103867;29;20134;-68
2022/09/15 00:56:35;;;;;;;12.18;7.15;;;;;;;9.54;60.88;97378.03;6103997;29;20051;-68
2022/09/15 00:59:43;;;;;;;9.50;6.10;;;;;;;9.46;61.21;97389.88;6103877;29;20494;-69
2022/09/15 01:02:47;;;;;;;11.82;6.72;;;;;;;9.21;61.65;97370.13;6103597;29;20084;-70
2022/09/15 01:05:54;;;;;;;12.75;6.38;;;;;;;9.07;62.48;97383.94;6103915;29;20059;-69
2022/09/15 01:09:09;;;;;;;9.05;5.38;;;;;;;8.89;63.33;97380.47;6103367;29;20135;-68
2022/09/15 01:12:13;;;;;;;8.02;5.80;;;;;;;8.70;63.36;97379.69;6103362;29;20052;-69
2022/09/15 01:15:19;;;;;;;7.70;5.72;;;;;;;8.58;63.84;97381.13;6103548;29;20195;-69
2022/09/15 01:18:29;;;;;;;8.70;5.13;;;;;;;8.52;64.73;97377.03;6103483;29;20052;-69
2022/09/15 01:21:45;;;;;;;9.82;4.80;;;;;;;8.46;64.92;97376.47;6103728;29;20147;-68
2022/09/15 01:25:00;;;;;;;8.60;5.05;;;;;;;8.40;64.87;97382.00;6103155;29;20055;-70
2022/09/15 01:28:32;;;;;;;9.50;5.00;;;;;;;8.38;65.25;97368.97;6103339;29;20425;-69
2022/09/15 01:35:21;;;;;;;8.63;4.78;;;;;;;8.48;64.69;97359.72;6101603;29;20523;-69
2022/09/15 01:38:33;;;;;;;7.70;5.00;;;;;;;8.66;64.67;97365.00;6103069;29;20044;-69
2022/09/15 01:41:46;;;;;;;10.55;5.80;;;;;;;8.84;64.43;97377.22;6102465;29;20058;-69
2022/09/15 01:44:54;;;;;;;9.02;6.35;;;;;;;9.04;63.85;97375.38;6102994;29;20465;-68
2022/09/15 01:47:58;;;;;;;11.93;6.60;;;;;;;9.17;63.46;97368.56;6102952;29;20127;-68
2022/09/15 01:51:05;;;;;;;9.43;6.13;;;;;;;9.33;62.96;97369.47;6102746;29;20048;-67
2022/09/15 01:54:10;;;;;;;15.05;8.10;;;;;;;9.43;62.78;97380.38;6102646;29;20143;-68
2022/09/15 01:57:20;;;;;;;20.55;12.30;;;;;;;9.54;62.48;97385.03;6102648;29;20101;-69
2022/09/15 02:00:22;;;;;;;26.40;16.33;;;;;;;9.55;62.16;97379.72;6102449;29;20052;-69
2022/09/15 02:03:33;;;;;;;25.65;16.83;;;;;;;9.54;62.50;97382.41;6102853;29;20048;-69
2022/09/15 02:07:06;;;;;;;24.20;15.50;;;;;;;9.53;62.42;97381.56;6101721;29;20111;-70
2022/09/15 02:10:37;;;;;;;23.23;14.63;;;;;;;9.51;62.71;97372.06;6102283;29;20067;-69
2022/09/15 02:14:02;;;;;;;22.90;13.57;;;;;;;9.49;62.87;97366.06;6102119;29;20590;-68
2022/09/15 02:17:04;;;;;;;28.58;15.57;;;;;;;9.48;62.76;97364.34;6102128;29;20048;-70
2022/09/15 02:20:23;;;;;;;22.80;15.45;;;;;;;9.47;63.25;97367.91;6101898;29;20059;-69
2022/09/15 02:23:35;;;;;;;27.35;15.48;;;;;;;9.46;63.22;97366.22;6102179;29;20451;-69
2022/09/15 02:26:41;;;;;;;24.23;15.20;;;;;;;9.48;62.90;97361.72;6101868;29;20040;-69
2022/09/15 02:29:46;;;;;;;31.73;14.40;;;;;;;9.54;62.65;97361.38;6101803;29;20051;-70
2022/09/15 02:32:55;;;;;;;18.95;12.80;;;;;;;9.66;62.56;97358.13;6101865;29;20044;-69
2022/09/15 02:36:02;;;;;;;21.38;11.18;;;;;;;9.79;62.24;97355.66;6101911;29;20419;-69
2022/09/15 02:39:08;;;;;;;18.10;11.60;;;;;;;9.98;61.60;97353.75;6101250;29;20048;-69
2022/09/15 02:42:10;;;;;;;15.68;9.63;;;;;;;10.19;60.99;97338.59;6101784;29;20051;-69
2022/09/15 02:45:13;;;;;;;;;;;;;;;10.40;60.79;97351.50;6102225;29;20131;-69
2022/09/15 02:48:14;;;;;;;19.52;8.00;;;;;;;10.55;59.97;97350.59;6101588;29;19923;-69
2022/09/15 02:51:16;;;;;;;15.25;8.02;;;;;;;10.66;59.58;97347.38;6101796;29;20139;-69
2022/09/15 02:54:21;;;;;;;20.10;8.57;;;;;;;10.75;59.49;97346.81;6101587;29;20048;-69
2022/09/15 02:57:25;;;;;;;11.82;6.75;;;;;;;10.80;58.94;97328.97;6102621;29;20052;-69
2022/09/15 03:00:27;;;;;;;13.38;7.93;;;;;;;11.01;58.18;97345.28;6105762;29;20072;-70
2022/09/15 03:03:32;;;;;;;13.60;9.43;;;;;;;11.16;58.00;97347.03;6106305;29;20637;-68
2022/09/15 03:06:36;;;;;;;18.52;9.93;;;;;;;11.24;57.70;97343.94;6106013;29;20052;-68
2022/09/15 03:09:38;;;;;;;17.92;10.70;;;;;;;11.32;57.25;97341.69;6106164;29;20051;-69
2022/09/15 03:12:45;;;;;;;12.77;8.85;;;;;;;11.43;57.13;97343.66;6105902;29;20059;-68
2022/09/15 03:15:47;;;;;;;15.18;9.02;;;;;;;11.48;57.02;97343.41;6105863;29;20071;-70
2022/09/15 03:18:48;;;;;;;14.95;9.43;;;;;;;11.52;56.84;97335.22;6105869;29;20054;-70
2022/09/15 03:21:50;;;;;;;9.80;5.55;;;;;;;11.62;55.76;97341.59;6105827;29;20193;-69
2022/09/15 03:24:58;;;;;;;6.43;4.25;;;;;;;11.78;54.58;97336.25;6105600;29;20387;-69
2022/09/15 03:28:01;;;;;;;5.28;3.88;;;;;;;11.89;53.57;97335.59;6104670;29;20044;-69
2022/09/15 03:31:04;;;;;;;7.90;3.67;;;;;;;12.00;52.76;97327.88;6104630;29;20058;-69
2022/09/15 03:34:06;;;;;;;6.93;3.42;;;;;;;12.06;52.04;97327.47;6104991;29;20426;-68
2022/09/15 03:37:10;;;;;;;5.35;3.22;;;;;;;12.15;51.56;97319.91;6103748;29;20407;-69
2022/09/15 03:40:11;;;;;;;4.95;2.97;;;;;;;12.23;50.76;97313.22;6105337;29;20078;-68
2022/09/15 03:43:15;;;;;;;7.10;3.05;;;;;;;12.34;50.20;97315.13;6105524;29;20052;-69
2022/09/15 03:46:19;;;;;;;6.70;3.30;;;;;;;12.46;48.97;97318.78;6104928;29;20072;-69
2022/09/15 03:49:21;;;;;;;4.07;2.63;;;;;;;12.53;48.59;97315.63;6105635;29;20516;-69
2022/09/15 03:52:25;;;;;;;8.00;3.45;;;;;;;12.56;48.29;97315.41;6105318;29;20143;-70
2022/09/15 03:55:27;;;;;;;5.43;3.03;;;;;;;12.58;48.03;97324.09;6104705;29;20055;-68
2022/09/15 03:58:29;;;;;;;7.00;3.50;;;;;;;12.57;47.50;97319.78;6105284;29;20166;-69
2022/09/15 04:01:35;;;;;;;4.85;2.97;;;;;;;12.61;47.13;97319.56;6105440;29;20059;-69
2022/09/15 04:04:39;;;;;;;4.25;2.50;;;;;;;12.74;46.31;97313.38;6104564;29;20430;-70
2022/09/15 04:07:44;;;;;;;5.00;2.97;;;;;;;12.98;45.70;97305.59;6105545;29;20067;-69
2022/09/15 04:10:45;;;;;;;4.00;2.60;;;;;;;13.24;44.92;97311.72;6103378;29;20398;-68
2022/09/15 04:13:51;;;;;;;3.95;2.78;;;;;;;13.25;44.75;97313.47;6104358;29;20552;-69
2022/09/15 04:16:55;;;;;;;3.50;2.40;;;;;;;13.22;44.59;97315.47;6104667;29;20048;-68
2022/09/15 04:19:56;;;;;;;3.75;2.33;;;;;;;13.20;44.45;97298.84;6104946;29;20063;-69
2022/09/15 04:22:58;;;;;;;3.30;2.60;;;;;;;13.27;44.43;97305.44;6104219;29;20048;-69
2022/09/15 04:26:02;;;;;;;3.33;2.10;;;;;;;13.43;43.90;97292.00;6104285;29;20060;-69
2022/09/15 04:29:16;;;;;;;2.70;1.88;;;;;;;13.72;42.59;97297.88;6104606;29;20047;-69
2022/09/15 04:32:20;;;;;;;2.83;1.50;;;;;;;13.83;42.42;97297.97;6104358;29;20040;-70
2022/09/15 04:35:24;;;;;;;4.00;2.05;;;;;;;14.16;41.84;97293.88;6103801;29;20070;-68
2022/09/15 04:38:28;;;;;;;;;;;;;;;14.47;42.02;97292.47;6104834;29;20153;-69
2022/09/15 04:41:32;;;;;;;2.83;1.50;;;;;;;14.73;41.21;97287.91;6103848;29;19929;-67
2022/09/15 04:44:36;;;;;;;3.47;1.80;;;;;;;14.98;40.41;97286.06;6104044;29;20134;-68
2022/09/15 04:47:37;;;;;;;2.30;1.15;;;;;;;15.37;39.72;97297.19;6102409;29;20195;-68
2022/09/15 04:50:44;;;;;;;2.55;1.55;;;;;;;15.63;39.02;97288.06;6103823;29;20091;-69
2022/09/15 04:53:49;;;;;;;1.95;1.23;;;;;;;15.84;38.31;97284.69;6104055;29;20055;-70
2022/09/15 04:56:55;;;;;;;1.83;1.10;;;;;;;16.15;37.87;97289.22;6104487;29;20207;-68
2022/09/15 05:00:04;;;;;;;2.92;1.10;;;;;;;16.54;36.64;97294.91;6103721;29;20046;-68
2022/09/15 05:03:09;;;;;;;1.15;0.90;;;;;;;16.74;36.79;97281.81;6103210;29;20067;-68
2022/09/15 05:06:16;;;;;;;1.20;0.98;;;;;;;17.16;36.34;97280.03;6102843;29;20581;-69
2022/09/15 05:09:20;;;;;;;2.75;1.20;;;;;;;17.54;35.59;97277.72;6102319;29;20506;-69
2022/09/15 05:12:26;;;;;;;1.27;1.00;;;;;;;17.90;35.04;97277.19;6103397;29;20056;-71
2022/09/15 05:15:35;;;;;;;1.95;1.10;;;;;;;18.39;34.42;97275.47;6103226;29;20131;-69
2022/09/15 05:18:41;;;;;;;2.15;1.25;;;;;;;18.82;33.93;97278.75;6102065;29;20044;-69
2022/09/15 05:21:42;;;;;;;1.00;0.43;;;;;;;19.06;33.06;97272.97;6102915;29;20403;-69
2022/09/15 05:24:44;;;;;;;1.90;0.90;;;;;;;19.72;31.94;97274.78;6103417;29;20066;-69
2022/09/15 05:27:46;;;;;;;1.60;0.65;;;;;;;21.28;29.64;97269.19;6102489;29;20056;-69
2022/09/15 05:30:51;;;;;;;0.88;0.60;;;;;;;23.58;27.03;97270.63;6102834;29;20044;-69
2022/09/15 05:33:58;;;;;;;1.15;0.57;;;;;;;26.13;23.74;97271.41;6102704;29;20044;-69
2022/09/15 05:37:04;;;;;;;0.55;0.50;;;;;;;28.06;21.66;97273.22;6102445;29;20139;-69
2022/09/15 05:40:08;;;;;;;0.75;0.40;;;;;;;29.27;20.08;97267.94;6103107;29;20545;-69
2022/09/15 05:43:12;;;;;;;0.80;0.40;;;;;;;30.10;19.26;97264.75;6102934;29;20241;-70
2022/09/15 05:46:15;;;;;;;1.27;0.35;;;;;;;31.23;17.72;97256.84;6102752;29;20056;-69
2022/09/15 05:49:16;;;;;;;1.27;0.35;;;;;;;30.91;17.18;97257.91;6102186;29;20048;-69
2022/09/15 05:52:21;;;;;;;0.50;0.43;;;;;;;31.58;15.95;97256.34;6102479;29;20535;-68
2022/09/15 05:55:22;;;;;;;0.65;0.30;;;;;;;31.66;15.83;97269.66;6102443;29;20048;-69
2022/09/15 05:58:31;;;;;;;1.48;0.30;;;;;;;32.01;15.25;97252.78;6102479;29;20044;-69
2022/09/15 06:01:38;;;;;;;1.27;0.50;;;;;;;30.07;16.68;97232.59;6102480;29;20040;-69
2022/09/15 06:04:42;;;;;;;0.30;0.30;;;;;;;28.32;16.91;97237.31;6102294;29;20056;-68
2022/09/15 06:07:51;;;;;;;1.52;0.50;;;;;;;27.11;18.10;97218.66;6102078;29;20092;-68
2022/09/15 06:11:00;;;;;;;1.25;0.60;;;;;;;27.05;18.33;97220.28;6102655;29;20491;-69
2022/09/15 06:14:04;;;;;;;1.35;0.50;;;;;;;29.05;16.76;97222.09;6101739;29;20056;-68
2022/09/15 06:17:06;;;;;;;0.55;0.40;;;;;;;28.92;16.39;97219.34;6100942;29;20052;-68
2022/09/15 06:20:08;;;;;;;1.85;0.52;;;;;;;27.59;17.22;97205.31;6101809;29;20139;-69
2022/09/15 06:23:15;;;;;;;1.02;0.40;;;;;;;26.23;18.17;97209.06;6101518;29;20399;-69
2022/09/15 06:26:19;;;;;;;1.83;0.50;;;;;;;24.76;19.76;97203.38;6101811;29;20048;-69
2022/09/15 06:29:24;;;;;;;0.98;0.38;;;;;;;23.94;20.16;97185.91;6101449;29;20071;-69
2022/09/15 06:32:25;;;;;;;1.38;0.70;;;;;;;23.94;19.88;97179.69;6100599;29;20526;-69
2022/09/15 06:35:29;;;;;;;0.60;0.45;;;;;;;23.61;19.95;97182.50;6101566;29;20092;-68
2022/09/15 06:38:35;;;;;;;0.65;0.28;;;;;;;23.67;19.68;97192.56;6101756;29;20052;-68
2022/09/15 06:41:43;;;;;;;1.60;0.63;;;;;;;23.47;20.13;97183.22;6101404;29;20048;-68
2022/09/15 06:44:47;;;;;;;3.03;0.50;;;;;;;23.13;20.45;97183.47;6101884;29;20047;-68
2022/09/15 06:47:51;;;;;;;0.60;0.40;;;;;;;22.33;21.21;97174.25;6101677;29;20453;-69
2022/09/15 06:50:57;;;;;;;1.00;0.60;;;;;;;21.75;22.22;97167.91;6101332;29;20044;-69
2022/09/15 06:54:02;;;;;;;1.25;0.60;;;;;;;21.43;22.90;97165.94;6101212;29;20056;-70
2022/09/15 06:57:08;;;;;;;0.50;0.45;;;;;;;21.57;22.85;97172.53;6101202;29;20044;-69
2022/09/15 07:00:10;;;;;;;1.05;0.60;;;;;;;21.76;21.97;97166.06;6101370;29;20059;-68
2022/09/15 07:03:14;;;;;;;1.85;0.50;;;;;;;22.66;21.05;97152.81;6101391;29;20131;-68
2022/09/15 07:06:16;;;;;;;2.72;0.63;;;;;;;23.98;19.55;97170.28;6101217;29;20095;-68
2022/09/15 07:09:22;;;;;;;0.45;0.40;;;;;;;25.38;18.26;97168.16;6101473;29;20048;-68
2022/09/15 07:12:26;;;;;;;2.13;0.80;;;;;;;25.49;17.89;97151.50;6100987;29;20152;-68
2022/09/15 07:15:28;;;;;;;0.98;0.40;;;;;;;25.16;17.91;97155.59;6101297;29;20111;-69
2022/09/15 07:18:30;;;;;;;0.93;0.35;;;;;;;24.66;18.92;97152.53;6101347;29;20059;-69
2022/09/15 07:21:32;;;;;;;1.35;0.68;;;;;;;24.37;18.82;97139.75;6100947;29;20108;-70
2022/09/15 07:24:33;;;;;;;0.70;0.50;;;;;;;24.16;19.00;97141.25;6101204;29;20055;-69
2022/09/15 07:27:37;;;;;;;1.88;0.65;;;;;;;23.56;19.39;97144.59;6100986;29;20048;-70
2022/09/15 07:30:42;;;;;;;1.42;0.60;;;;;;;23.40;19.58;97144.63;6100871;29;20044;-68
2022/09/15 07:33:44;;;;;;;1.05;0.70;;;;;;;23.19;19.71;97129.13;6100813;29;20056;-69
2022/09/15 07:36:46;;;;;;;1.92;0.47;;;;;;;23.15;19.51;97131.28;6101084;29;20123;-68
2022/09/15 07:39:50;;;;;;;0.60;0.50;;;;;;;23.33;19.62;97122.19;6101017;29;20048;-68
2022/09/15 07:42:54;;;;;;;2.33;0.73;;;;;;;24.61;18.74;97133.38;6101127;29;20050;-68
2022/09/15 07:45:57;;;;;;;0.52;0.50;;;;;;;26.34;17.03;97133.88;6105165;29;20043;-69
2022/09/15 07:49:02;;;;;;;2.50;0.50;;;;;;;26.45;17.09;97121.72;6105124;29;20040;-68
2022/09/15 07:52:03;;;;;;;2.50;0.50;;;;;;;24.97;17.93;97116.56;6104891;29;20200;-68
2022/09/15 07:55:08;;;;;;;1.55;0.60;;;;;;;23.78;19.46;97104.53;6104945;29;20052;-69
2022/09/15 07:58:11;;;;;;;0.77;0.40;;;;;;;23.41;19.89;97103.34;6104505;29;20051;-68
2022/09/15 08:01:14;;;;;;;1.17;0.60;;;;;;;23.18;20.33;97104.09;6104458;29;20044;-70
2022/09/15 08:04:15;;;;;;;1.20;0.68;;;;;;;22.95;20.37;97100.44;6104714;29;20058;-69
2022/09/15 08:07:19;;;;;;;0.75;0.60;;;;;;;22.70;19.82;97092.44;6104367;29;20056;-69
2022/09/15 08:10:24;;;;;;;1.45;0.60;;;;;;;22.01;20.57;97104.50;6104352;29;20048;-69
2022/09/15 08:13:25;;;;;;;2.53;0.70;;;;;;;21.63;20.58;97085.34;6103397;29;20533;-69
2022/09/15 08:16:27;;;;;;;1.15;0.50;;;;;;;21.39;21.10;97089.63;6104140;29;20052;-69
2022/09/15 08:19:30;;;;;;;1.13;0.50;;;;;;;21.41;20.54;97082.25;6103647;29;20059;-70
2022/09/15 08:22:34;;;;;;;0.70;0.60;;;;;;;20.81;21.02;97072.44;6104353;29;20048;-68
2022/09/15 08:25:38;;;;;;;0.90;0.40;;;;;;;20.69;21.36;97080.88;6104120;29;20044;-68
2022/09/15 08:28:42;;;;;;;1.35;0.55;;;;;;;20.51;21.59;97079.06;6104089;29;20115;-68
2022/09/15 08:31:46;;;;;;;2.05;0.65;;;;;;;20.44;21.80;97088.72;6104253;29;20048;-69
2022/09/15 08:34:52;;;;;;;3.28;0.77;;;;;;;20.56;21.30;97073.28;6104092;29;20104;-69
2022/09/15 08:37:54;;;;;;;4.05;0.80;;;;;;;20.52;21.60;97061.19;6103829;29;20055;-70
2022/09/15 08:40:59;;;;;;;1.08;0.75;;;;;;;20.62;21.80;97073.50;6103835;29;20052;-68
2022/09/15 08:44:09;;;;;;;1.58;0.50;;;;;;;20.38;22.27;97059.91;6104071;29;20146;-68
2022/09/15 08:47:26;;;;;;;1.42;0.60;;;;;;;20.44;22.34;97064.66;6104011;29;20517;-70
2022/09/15 08:50:44;;;;;;;0.90;0.40;;;;;;;20.32;22.02;97065.88;6103475;29;20064;-69
2022/09/15 08:53:58;;;;;;;3.40;0.50;;;;;;;20.13;21.89;97080.28;6103926;29;20048;-69
2022/09/15 08:57:11;;;;;;;0.82;0.55;;;;;;;20.18;21.63;97068.16;6103012;29;20103;-69
2022/09/15 09:00:15;;;;;;;3.58;0.63;;;;;;;20.24;21.42;97065.81;6103307;29;20058;-68
2022/09/15 09:03:24;;;;;;;1.23;0.43;;;;;;;20.50;21.30;97065.88;6103470;29;20087;-71
2022/09/15 09:06:55;;;;;;;2.10;0.50;;;;;;;20.62;21.36;97060.13;6103432;29;20048;-68
2022/09/15 09:10:18;;;;;;;0.77;0.45;;;;;;;20.66;21.31;97049.09;6102823;29;20135;-69
2022/09/15 09:13:19;;;;;;;2.40;0.70;;;;;;;20.83;21.06;97054.41;6102355;29;20422;-69
2022/09/15 09:16:36;;;;;;;0.50;0.30;;;;;;;20.95;21.10;97044.25;6102949;29;20060;-69
2022/09/15 09:20:02;;;;;;;1.27;0.60;;;;;;;20.85;21.30;97032.84;6103070;29;20048;-69
2022/09/15 09:23:12;;;;;;;1.98;0.70;;;;;;;20.76;21.54;97039.16;6103239;29;20044;-69
2022/09/15 09:26:17;;;;;;;0.98;0.60;;;;;;;20.70;21.62;97037.13;6103055;29;20084;-69
2022/09/15 09:29:28;;;;;;;0.50;0.40;;;;;;;20.61;21.80;97039.75;6103145;29;20395;-69
2022/09/15 09:32:44;;;;;;;0.82;0.60;;;;;;;20.65;22.27;97026.06;6102023;29;20044;-70
2022/09/15 09:35:51;;;;;;;0.57;0.50;;;;;;;20.63;21.83;97021.69;6103108;29;20056;-69
2022/09/15 09:38:52;;;;;;;1.35;0.60;;;;;;;20.90;21.48;97019.81;6102631;29;20525;-69
2022/09/15 09:41:58;;;;;;;0.77;0.45;;;;;;;21.03;21.57;97019.34;6102628;29;20040;-70
2022/09/15 09:45:04;;;;;;;0.32;0.20;;;;;;;20.99;21.28;97013.50;6102480;29;20044;-69
2022/09/15 09:48:20;;;;;;;0.70;0.50;;;;;;;20.70;21.35;97013.06;6102403;29;20048;-68
2022/09/15 09:51:35;;;;;;;0.68;0.40;;;;;;;20.63;21.75;97004.81;6102566;29;20072;-68
2022/09/15 09:54:44;;;;;;;1.13;0.47;;;;;;;20.82;21.57;97004.56;6102184;29;20052;-68
2022/09/15 09:57:46;;;;;;;2.05;0.77;;;;;;;21.11;21.56;97007.88;6101809;29;20055;-69
2022/09/15 10:00:48;;;;;;;1.00;0.65;;;;;;;21.77;20.70;97012.41;6101821;29;20544;-68
2022/09/15 10:04:19;;;;;;;1.80;0.55;;;;;;;22.07;20.29;97005.53;6102062;29;20044;-70
2022/09/15 10:07:31;;;;;;;1.15;0.60;;;;;;;22.11;19.45;97003.38;6102066;29;20055;-68
2022/09/15 10:10:35;;;;;;;0.90;0.60;;;;;;;22.11;18.89;96989.97;6101941;29;20044;-70
2022/09/15 10:13:53;;;;;;;1.38;0.40;;;;;;;22.12;19.17;96988.94;6101802;29;20048;-69
2022/09/15 10:17:09;;;;;;;2.20;0.90;;;;;;;22.25;18.85;96989.31;6101546;29;20058;-69
2022/09/15 10:20:45;;;;;;;0.73;0.40;;;;;;;22.41;18.75;96988.41;6101978;29;20071;-71
2022/09/15 10:23:49;;;;;;;0.55;0.30;;;;;;;22.26;18.74;96980.25;6100994;29;20048;-70
2022/09/15 10:27:32;;;;;;;1.65;0.63;;;;;;;21.93;19.18;96969.53;6101410;29;20071;-69
2022/09/15 10:30:37;;;;;;;1.00;0.50;;;;;;;22.00;19.52;96979.59;6101824;29;20043;-69
2022/09/15 10:33:41;;;;;;;0.55;0.32;;;;;;;22.39;18.89;96968.97;6101565;29;20050;-70
2022/09/15 10:36:45;;;;;;;2.42;0.52;;;;;;;22.25;18.60;96970.53;6101548;29;20043;-70
2022/09/15 10:40:05;;;;;;;8.23;1.15;;;;;;;22.17;18.84;96970.53;6101688;29;20040;-69
2022/09/15 10:43:51;;;;;;;0.73;0.30;;;;;;;21.86;19.15;96973.06;6101873;29;20414;-68
2022/09/15 10:47:13;;;;;;;0.95;0.65;;;;;;;21.75;19.29;96961.66;6079717;29;20060;-69
2022/09/15 10:50:43;;;;;;;2.05;0.60;;;;;;;21.85;19.22;96956.13;6101341;29;20161;-69
2022/09/15 10:54:18;;;;;;;3.28;0.50;;;;;;;22.09;19.15;96957.13;6099977;29;20532;-68
2022/09/15 10:57:47;;;;;;;0.50;0.40;;;;;;;21.65;19.41;96936.88;6101395;29;20048;-69
2022/09/15 11:01:21;;;;;;;0.50;0.50;;;;;;;21.38;20.05;96946.09;6100850;29;20055;-69
2022/09/15 11:04:39;;;;;;;1.25;0.40;;;;;;;21.21;20.35;96936.31;6101312;29;20406;-69
2022/09/15 11:07:53;;;;;;;0.98;0.55;;;;;;;21.11;20.68;96946.31;6101154;29;20064;-69
2022/09/15 11:11:15;;;;;;;0.82;0.43;;;;;;;20.99;20.52;96933.25;6101274;29;20048;-68
2022/09/15 11:14:47;;;;;;;0.98;0.63;;;;;;;20.56;20.80;96932.44;6101227;29;20044;-70
2022/09/15 11:18:12;;;;;;;2.33;0.50;;;;;;;20.55;20.47;96935.25;6101439;29;20047;-69
2022/09/15 11:21:26;;;;;;;0.50;0.40;;;;;;;20.18;20.95;96926.53;6105800;29;20130;-69
2022/09/15 11:24:50;;;;;;;0.65;0.45;;;;;;;20.14;21.10;96919.00;6105992;29;20495;-69
2022/09/15 11:28:00;;;;;;;3.08;0.52;;;;;;;19.98;21.28;96916.22;6105953;29;20414;-69
2022/09/15 11:31:26;;;;;;;1.00;0.50;;;;;;;20.01;21.21;96921.25;6105505;29;20530;-68
2022/09/15 11:34:41;;;;;;;0.32;0.30;;;;;;;20.00;21.19;96924.91;6105521;29;20048;-68
2022/09/15 11:37:49;;;;;;;0.50;0.30;;;;;;;19.78;21.21;96923.59;6105269;29;20617;-68
2022/09/15 11:41:04;;;;;;;1.05;0.50;;;;;;;19.80;21.37;96929.63;6105094;29;20048;-69
2022/09/15 11:44:28;;;;;;;1.15;0.63;;;;;;;19.68;21.75;96924.53;6105487;29;20134;-69
2022/09/15 11:47:40;;;;;;;2.40;0.60;;;;;;;19.67;21.83;96925.53;6105223;29;20055;-69
2022/09/15 11:50:47;;;;;;;3.40;0.75;;;;;;;19.43;22.31;96925.28;6105608;29;20471;-69
2022/09/15 11:54:01;;;;;;;0.77;0.65;;;;;;;19.31;22.41;96924.69;6105071;29;20055;-71
2022/09/15 11:57:14;;;;;;;0.93;0.70;;;;;;;19.33;22.60;96956.53;6103870;29;20418;-69
2022/09/15 12:00:15;;;;;;;0.85;0.60;;;;;;;19.28;23.49;96941.84;6105122;29;20064;-69
2022/09/15 12:03:31;;;;;;;1.50;0.50;;;;;;;19.05;24.55;96927.25;6103317;29;20047;-69
2022/09/15 12:06:44;;;;;;;0.98;0.40;;;;;;;18.87;25.07;96929.91;6104771;29;20052;-68
2022/09/15 12:09:51;;;;;;;0.93;0.32;;;;;;;18.69;25.59;96927.19;6119118;29;20056;-69
2022/09/15 12:12:59;;;;;;;0.85;0.50;;;;;;;18.69;25.39;96913.84;6103837;29;20052;-69
2022/09/15 12:16:01;;;;;;;1.08;0.60;;;;;;;18.59;25.55;96923.72;6104730;29;20084;-69
2022/09/15 12:19:08;;;;;;;0.63;0.40;;;;;;;18.79;24.93;96927.13;6103360;29;20510;-68
2022/09/15 12:22:18;;;;;;;1.50;0.47;;;;;;;18.86;23.72;96924.72;6104304;29;20131;-70
2022/09/15 12:25:31;;;;;;;1.27;0.80;;;;;;;18.78;24.08;96920.97;6104234;29;20056;-69
2022/09/15 12:28:54;;;;;;;0.90;0.43;;;;;;;18.91;23.96;96925.09;6102751;29;20056;-69
2022/09/15 12:32:27;;;;;;;0.98;0.60;;;;;;;18.88;24.75;96934.25;6103275;29;20052;-69
2022/09/15 12:35:32;;;;;;;0.43;0.43;;;;;;;18.51;25.57;96926.28;6103919;29;20151;-69
2022/09/15 12:38:35;;;;;;;2.20;0.40;;;;;;;18.33;26.01;96929.72;6102884;29;20048;-70
2022/09/15 12:41:55;;;;;;;2.63;0.63;;;;;;;18.43;25.20;96920.84;6103826;29;20668;-69
2022/09/15 12:45:24;;;;;;;5.57;0.60;;;;;;;18.37;25.00;96941.78;6103672;29;20506;-70
2022/09/15 12:48:32;;;;;;;1.15;0.50;;;;;;;18.34;25.46;96926.09;6098351;29;20060;-69
2022/09/15 12:51:37;;;;;;;0.98;0.57;;;;;;;18.25;25.64;96948.25;6103445;29;20052;-69
2022/09/15 12:54:42;;;;;;;1.60;0.20;;;;;;;18.28;25.87;96939.97;6102650;29;20054;-71
2022/09/15 12:57:51;;;;;;;0.60;0.50;;;;;;;18.14;26.51;96951.91;6103264;29;20044;-69
2022/09/15 13:01:22;;;;;;;1.95;0.35;;;;;;;17.82;28.73;96936.31;6103519;29;20056;-69
2022/09/15 13:04:42;;;;;;;1.00;0.45;;;;;;;17.63;28.80;96939.81;6103416;29;20418;-69
2022/09/15 13:07:52;;;;;;;1.02;0.80;;;;;;;17.78;28.66;96929.63;6102857;29;20060;-68
2022/09/15 13:11:30;;;;;;;0.88;0.65;;;;;;;17.68;29.18;96934.06;6103393;29;20050;-71
2022/09/15 13:14:43;;;;;;;1.90;0.70;;;;;;;17.80;28.94;96934.78;6097551;29;20058;-68
2022/09/15 13:17:50;;;;;;;1.45;0.57;;;;;;;17.70;29.11;96916.16;6103148;29;20048;-69
2022/09/15 13:20:59;;;;;;;1.25;0.43;;;;;;;17.73;29.34;96910.53;6103228;29;20490;-69
2022/09/15 13:24:05;;;;;;;1.50;0.70;;;;;;;17.63;29.24;96913.19;6103045;29;20052;-68
2022/09/15 13:27:11;;;;;;;2.25;0.63;;;;;;;17.54;29.66;96905.25;6103183;29;20058;-70
2022/09/15 13:30:30;;;;;;;1.42;0.47;;;;;;;17.49;29.98;96897.66;6103110;29;20143;-69
2022/09/15 13:33:56;;;;;;;2.08;0.80;;;;;;;17.44;30.18;96890.13;6103018;29;20048;-70
2022/09/15 13:37:22;;;;;;;0.98;0.68;;;;;;;17.48;30.34;96890.69;6102708;29;20095;-70
2022/09/15 13:40:40;;;;;;;1.73;0.75;;;;;;;17.38;30.51;96896.03;6102587;29;20044;-69
2022/09/15 13:44:22;;;;;;;2.95;0.80;;;;;;;17.44;30.65;96884.81;6102575;29;20040;-68
2022/09/15 13:47:41;;;;;;;0.95;0.77;;;;;;;17.22;31.58;96890.44;6100493;29;20067;-69
2022/09/15 13:50:55;;;;;;;1.05;0.60;;;;;;;17.05;32.13;96878.69;6102169;29;20146;-69
2022/09/15 13:54:05;;;;;;;3.22;0.70;;;;;;;17.03;32.62;96892.09;6102498;29;20149;-69
2022/09/15 13:57:07;;;;;;;0.85;0.50;;;;;;;17.01;32.85;96888.75;6101273;29;20494;-69
2022/09/15 14:00:23;;;;;;;0.90;0.60;;;;;;;16.93;33.02;96891.25;6102155;29;20510;-69
2022/09/15 14:03:39;;;;;;;2.65;0.60;;;;;;;16.76;33.02;96886.59;6102250;29;20407;-69
2022/09/15 14:06:47;;;;;;;1.35;0.65;;;;;;;16.69;33.05;96882.78;6102069;29;20130;-69
2022/09/15 14:09:51;;;;;;;1.55;1.25;;;;;;;16.55;33.24;96876.88;6101917;29;20052;-71
2022/09/15 14:12:57;;;;;;;5.80;3.83;;;;;;;16.54;33.32;96885.84;6101486;29;20052;-69
2022/09/15 14:16:09;;;;;;;2.97;2.05;;;;;;;16.55;33.20;96876.88;6101783;29;20044;-70
2022/09/15 14:19:37;;;;;;;0.85;0.70;;;;;;;16.64;33.30;96879.69;6102099;29;20063;-70
2022/09/15 14:22:47;;;;;;;2.95;0.95;;;;;;;16.56;33.45;96883.91;6101964;29;20194;-69
2022/09/15 14:25:48;;;;;;;1.60;1.00;;;;;;;16.48;33.48;96870.47;6101592;29;20074;-70
2022/09/15 14:29:02;;;;;;;12.00;7.22;;;;;;;16.43;33.82;96875.31;6101751;29;20052;-70
2022/09/15 14:32:10;;;;;;;8.07;3.95;;;;;;;16.38;34.18;96877.53;6101485;29;20502;-71
2022/09/15 14:35:17;;;;;;;3.05;1.98;;;;;;;16.33;34.08;96869.13;6101714;29;20088;-69
2022/09/15 14:38:23;;;;;;;4.30;1.67;;;;;;;16.30;34.24;96877.38;6101649;29;20044;-69
2022/09/15 14:41:31;;;;;;;3.33;1.42;;;;;;;16.25;34.31;96874.28;6101536;29;20156;-72
2022/09/15 14:44:36;;;;;;;3.97;1.75;;;;;;;16.23;34.33;96870.94;6101751;29;20426;-69
2022/09/15 14:47:42;;;;;;;3.47;1.80;;;;;;;16.21;34.27;96878.19;6101564;29;20522;-69
2022/09/15 14:50:52;;;;;;;2.05;1.42;;;;;;;16.20;34.44;96871.22;6101314;29;20089;-70
2022/09/15 14:53:58;;;;;;;2.55;1.63;;;;;;;16.15;34.49;96869.78;6100637;29;20502;-69